createdAt,value
2023-02-02T00:00:51.931Z,3.70
2023-02-02T00:03:18.658Z,3.70
2023-02-02T00:05:49.385Z,3.90
2023-02-02T00:08:16.721Z,3.90
2023-02-02T00:10:43.655Z,3.70
2023-02-02T00:13:10.620Z,3.40
2023-02-02T00:15:37.368Z,3.50
2023-02-02T00:18:04.155Z,3.40
2023-02-02T00:20:31.011Z,3.20
2023-02-02T00:22:57.819Z,3.10
2023-02-02T00:25:24.843Z,3.20
2023-02-02T00:27:51.849Z,3.10
2023-02-02T00:30:18.697Z,3.10
2023-02-02T00:32:48.439Z,3.00
2023-02-02T00:35:15.445Z,3.10
2023-02-02T00:37:42.368Z,3.10
2023-02-02T00:40:09.477Z,3.10
2023-02-02T00:42:36.254Z,3.20
2023-02-02T00:45:18.980Z,3.20
2023-02-02T00:47:49.272Z,3.30
2023-02-02T00:50:17.536Z,3.30
2023-02-02T00:52:44.229Z,3.20
2023-02-02T00:55:11.085Z,3.20
2023-02-02T00:57:37.906Z,3.20
2023-02-02T01:00:05.305Z,3.10
2023-02-02T01:02:32.032Z,2.90
2023-02-02T01:04:58.863Z,2.70
2023-02-02T01:07:25.612Z,2.90
2023-02-02T01:09:52.363Z,2.90
2023-02-02T01:12:19.117Z,3.20
2023-02-02T01:14:45.905Z,3.00
2023-02-02T01:17:13.292Z,3.20
2023-02-02T01:19:41.007Z,2.90
2023-02-02T01:22:08.214Z,3.00
2023-02-02T01:24:34.951Z,3.10
2023-02-02T01:27:01.699Z,3.00
2023-02-02T01:29:28.491Z,2.90
2023-02-02T01:31:55.246Z,3.10
2023-02-02T01:34:21.992Z,3.20
2023-02-02T01:36:48.674Z,3.10
2023-02-02T01:39:15.434Z,3.30
2023-02-02T01:41:42.395Z,3.20
2023-02-02T01:44:27.725Z,2.90
2023-02-02T01:46:54.560Z,3.00
2023-02-02T01:49:21.255Z,3.00
2023-02-02T01:51:52.377Z,2.80
2023-02-02T01:54:20.348Z,2.90
2023-02-02T01:57:00.251Z,2.80
2023-02-02T01:59:27.434Z,2.90
2023-02-02T02:01:55.129Z,2.80
2023-02-02T02:04:22.120Z,2.80
2023-02-02T02:06:48.833Z,2.70
2023-02-02T02:09:15.526Z,2.70
2023-02-02T02:11:42.248Z,2.70
2023-02-02T02:14:28.195Z,2.50
2023-02-02T02:16:54.974Z,2.70
2023-02-02T02:19:36.900Z,2.80
2023-02-02T02:22:32.353Z,2.70
2023-02-02T02:25:17.852Z,2.80
2023-02-02T02:28:04.852Z,2.70
2023-02-02T02:30:37.715Z,2.70
2023-02-02T02:33:10.881Z,2.80
2023-02-02T02:35:42.710Z,2.60
2023-02-02T02:38:24.667Z,2.60
2023-02-02T02:40:55.364Z,2.80
2023-02-02T02:43:29.786Z,2.80
2023-02-02T02:45:56.560Z,2.80
2023-02-02T02:48:23.307Z,2.90
2023-02-02T02:50:50.189Z,3.10
2023-02-02T02:53:25.826Z,3.10
2023-02-02T02:56:06.657Z,3.20
2023-02-02T02:58:40.903Z,3.10
2023-02-02T03:01:34.169Z,2.90
2023-02-02T03:04:04.017Z,3.00
2023-02-02T03:06:41.973Z,3.00
2023-02-02T03:09:12.860Z,2.90
2023-02-02T03:11:39.557Z,3.30
2023-02-02T03:14:09.670Z,3.40
2023-02-02T03:16:39.374Z,3.70
2023-02-02T03:19:06.220Z,4.30
2023-02-02T03:21:33.132Z,4.80
2023-02-02T03:23:59.856Z,5.00
2023-02-02T03:26:26.701Z,5.30
2023-02-02T03:28:53.750Z,5.40
2023-02-02T03:31:20.747Z,5.50
2023-02-02T03:33:47.495Z,5.50
2023-02-02T03:36:14.269Z,5.50
2023-02-02T03:38:41.024Z,5.50
2023-02-02T03:41:07.760Z,5.60
2023-02-02T03:43:34.499Z,5.60
2023-02-02T03:46:01.960Z,5.60
2023-02-02T03:48:28.739Z,5.50
2023-02-02T03:50:55.538Z,4.90
2023-02-02T03:53:22.663Z,4.40
2023-02-02T03:55:49.397Z,4.20
2023-02-02T03:58:16.179Z,3.90
2023-02-02T04:00:43.046Z,3.80
2023-02-02T04:03:09.925Z,3.60
2023-02-02T04:05:36.654Z,3.30
2023-02-02T04:08:03.395Z,3.10
2023-02-02T04:10:30.105Z,3.10
2023-02-02T04:12:57.219Z,3.00
2023-02-02T04:15:24.326Z,3.00
2023-02-02T04:17:51.128Z,3.00
2023-02-02T04:20:17.854Z,3.00
2023-02-02T04:22:44.610Z,3.00
2023-02-02T04:25:11.329Z,2.90
2023-02-02T04:27:38.148Z,2.80
2023-02-02T04:30:05.932Z,2.50
2023-02-02T04:32:33.225Z,2.40
2023-02-02T04:35:00.053Z,2.40
2023-02-02T04:37:26.761Z,2.40
2023-02-02T04:39:55.396Z,2.40
2023-02-02T04:42:22.144Z,2.50
2023-02-02T04:44:49.017Z,2.40
2023-02-02T04:47:15.711Z,2.40
2023-02-02T04:49:42.371Z,2.60
2023-02-02T04:52:10.605Z,2.40
2023-02-02T04:54:37.330Z,2.70
2023-02-02T04:57:04.063Z,2.80
2023-02-02T04:59:30.834Z,2.90
2023-02-02T05:02:01.035Z,2.50
2023-02-02T05:04:27.831Z,2.60
2023-02-02T05:06:54.606Z,2.60
2023-02-02T05:09:21.433Z,2.60
2023-02-02T05:11:48.149Z,2.60
2023-02-02T05:14:18.388Z,2.60
2023-02-02T05:16:45.189Z,2.80
2023-02-02T05:19:12.125Z,2.80
2023-02-02T05:21:39.033Z,2.60
2023-02-02T05:24:05.915Z,2.60
2023-02-02T05:26:32.654Z,2.60
2023-02-02T05:28:59.385Z,2.70
2023-02-02T05:31:26.195Z,2.70
2023-02-02T05:33:52.924Z,2.60
2023-02-02T05:36:19.794Z,2.50
2023-02-02T05:38:46.611Z,2.40
2023-02-02T05:41:13.414Z,2.50
2023-02-02T05:43:40.243Z,2.60
2023-02-02T05:46:07.098Z,2.60
2023-02-02T05:48:33.876Z,2.40
2023-02-02T05:51:04.366Z,2.50
2023-02-02T05:53:31.286Z,2.50
2023-02-02T05:55:58.052Z,2.50
2023-02-02T05:58:24.924Z,2.60
2023-02-02T06:00:51.718Z,2.50
2023-02-02T06:03:18.499Z,2.50
2023-02-02T06:05:45.260Z,2.60
2023-02-02T06:08:12.092Z,2.50
2023-02-02T06:10:39.948Z,2.50
2023-02-02T06:13:06.684Z,2.60
2023-02-02T06:15:34.760Z,2.60
2023-02-02T06:18:01.829Z,2.50
2023-02-02T06:20:28.670Z,2.50
2023-02-02T06:22:55.443Z,2.30
2023-02-02T06:25:22.418Z,2.40
2023-02-02T06:27:49.570Z,2.50
2023-02-02T06:30:16.376Z,2.70
2023-02-02T06:32:43.196Z,2.60
2023-02-02T06:35:09.996Z,2.50
2023-02-02T06:37:39.019Z,2.40
2023-02-02T06:40:06.836Z,2.70
2023-02-02T06:42:34.187Z,2.70
2023-02-02T06:45:00.993Z,3.00
2023-02-02T06:47:27.683Z,3.10
2023-02-02T06:49:54.634Z,3.30
2023-02-02T06:52:21.368Z,3.40
2023-02-02T06:54:48.066Z,3.50
2023-02-02T06:57:14.768Z,3.80
2023-02-02T06:59:41.765Z,3.90
2023-02-02T07:02:10.625Z,4.10
2023-02-02T07:04:37.377Z,4.20
2023-02-02T07:07:04.180Z,3.90
2023-02-02T07:09:34.328Z,4.20
2023-02-02T07:12:01.039Z,4.40
2023-02-02T07:14:27.789Z,4.60
2023-02-02T07:16:54.522Z,4.70
2023-02-02T07:19:21.230Z,4.80
2023-02-02T07:21:47.942Z,4.70
2023-02-02T07:24:14.618Z,5.10
2023-02-02T07:26:41.302Z,5.40
2023-02-02T07:29:08.960Z,5.70
2023-02-02T07:31:36.794Z,5.70
2023-02-02T07:34:03.837Z,5.50
2023-02-02T07:36:30.888Z,5.90
2023-02-02T07:38:57.944Z,6.20
2023-02-02T07:41:24.898Z,6.30
2023-02-02T07:43:51.865Z,6.30
2023-02-02T07:46:18.841Z,6.20
2023-02-02T07:48:45.563Z,6.10
2023-02-02T07:51:13.048Z,6.00
2023-02-02T07:53:40.569Z,6.80
2023-02-02T07:56:08.030Z,8.30
2023-02-02T07:58:34.812Z,9.40
2023-02-02T08:01:05.090Z,10.10
2023-02-02T08:03:31.801Z,9.90
2023-02-02T08:05:58.640Z,11.30
2023-02-02T08:08:25.379Z,11.40
2023-02-02T08:10:52.504Z,11.00
2023-02-02T08:13:19.294Z,10.80
2023-02-02T08:15:46.151Z,10.50
2023-02-02T08:18:12.936Z,10.70
2023-02-02T08:20:39.723Z,10.70
2023-02-02T08:23:13.432Z,10.70
2023-02-02T08:25:40.246Z,10.90
2023-02-02T08:28:06.976Z,11.80
2023-02-02T08:30:34.993Z,12.40
2023-02-02T08:33:01.763Z,13.90
2023-02-02T08:35:28.572Z,14.20
2023-02-02T08:37:55.380Z,14.20
2023-02-02T08:40:22.136Z,14.10
2023-02-02T08:42:52.858Z,15.20
2023-02-02T08:46:02.151Z,14.90
2023-02-02T08:48:12.127Z,15.60
2023-02-02T08:50:39.273Z,16.30
2023-02-02T08:53:05.993Z,16.00
2023-02-02T08:55:32.849Z,16.10
2023-02-02T08:57:59.576Z,15.80
2023-02-02T09:00:26.436Z,15.00
2023-02-02T09:02:53.254Z,13.10
2023-02-02T09:05:19.998Z,11.40
2023-02-02T09:07:47.336Z,11.80
2023-02-02T09:10:14.028Z,12.90
2023-02-02T09:12:40.788Z,13.20
2023-02-02T09:15:07.836Z,12.40
2023-02-02T09:17:35.262Z,11.50
2023-02-02T09:20:02.309Z,11.20
2023-02-02T09:22:29.129Z,10.60
2023-02-02T09:24:55.878Z,10.60
2023-02-02T09:27:22.646Z,10.60
2023-02-02T09:29:49.697Z,11.50
2023-02-02T09:32:16.475Z,12.60
2023-02-02T09:34:43.344Z,12.90
2023-02-02T09:37:10.258Z,11.60
2023-02-02T09:39:37.061Z,11.60
2023-02-02T09:42:09.349Z,13.10
2023-02-02T09:44:36.128Z,14.60
2023-02-02T09:47:12.657Z,15.60
2023-02-02T09:49:57.877Z,16.90
2023-02-02T09:52:26.061Z,16.20
2023-02-02T09:54:54.815Z,17.10
2023-02-02T09:57:22.925Z,16.60
2023-02-02T09:59:50.300Z,16.10
2023-02-02T10:02:17.026Z,16.70
2023-02-02T10:04:45.067Z,16.90
2023-02-02T10:07:21.846Z,17.70
2023-02-02T10:09:48.757Z,18.50
2023-02-02T10:12:15.610Z,18.50
2023-02-02T10:14:52.618Z,18.90
2023-02-02T10:17:39.669Z,18.90
2023-02-02T10:20:18.716Z,18.40
2023-02-02T10:22:45.530Z,18.80
2023-02-02T10:25:12.776Z,19.70
2023-02-02T10:27:39.696Z,18.90
2023-02-02T10:30:19.999Z,17.20
2023-02-02T10:32:47.149Z,18.40
2023-02-02T10:35:20.208Z,18.20
2023-02-02T10:37:54.125Z,18.50
2023-02-02T10:40:39.238Z,18.80
2023-02-02T10:43:27.587Z,15.90
2023-02-02T10:45:54.356Z,15.10
2023-02-02T10:48:23.839Z,15.00
2023-02-02T10:50:52.067Z,14.70
2023-02-02T10:53:18.883Z,14.50
2023-02-02T10:55:45.664Z,13.90
2023-02-02T10:58:12.498Z,13.40
2023-02-02T11:00:46.346Z,13.30
2023-02-02T11:03:13.760Z,13.20
2023-02-02T11:05:59.318Z,12.70
2023-02-02T11:08:29.138Z,12.90
2023-02-02T11:10:56.007Z,12.60
2023-02-02T11:13:25.400Z,12.80
2023-02-02T11:16:05.546Z,12.70
2023-02-02T11:18:32.470Z,11.80
2023-02-02T11:20:59.282Z,11.50
2023-02-02T11:23:27.339Z,11.40
2023-02-02T11:26:00.991Z,12.00
2023-02-02T11:28:30.369Z,12.20
2023-02-02T11:30:57.178Z,12.60
2023-02-02T11:33:23.922Z,12.70
2023-02-02T11:36:13.849Z,12.30
2023-02-02T11:38:40.642Z,13.00
2023-02-02T11:41:09.229Z,13.80
2023-02-02T11:43:48.883Z,14.50
2023-02-02T11:46:19.718Z,14.80
2023-02-02T11:49:07.817Z,14.60
2023-02-02T11:51:34.513Z,15.20
2023-02-02T11:54:06.421Z,16.50
2023-02-02T11:56:33.678Z,17.30
2023-02-02T11:59:03.822Z,17.90
2023-02-02T12:01:31.917Z,18.00
2023-02-02T12:03:59.396Z,18.60
2023-02-02T12:06:27.030Z,16.80
2023-02-02T12:08:55.810Z,14.90
2023-02-02T12:11:30.518Z,14.50
2023-02-02T12:14:03.788Z,14.50
2023-02-02T12:16:37.040Z,13.30
2023-02-02T12:19:23.226Z,13.10
2023-02-02T12:21:54.359Z,15.50
2023-02-02T12:24:38.218Z,16.30
2023-02-02T12:27:17.885Z,18.20
2023-02-02T12:29:47.682Z,18.40
2023-02-02T12:32:24.032Z,18.30
2023-02-02T12:34:58.884Z,18.10
2023-02-02T12:37:35.083Z,17.80
2023-02-02T12:40:09.315Z,17.40
2023-02-02T12:42:49.097Z,17.30
2023-02-02T12:45:19.184Z,17.90
2023-02-02T12:47:48.960Z,17.70
2023-02-02T12:50:34.437Z,15.90
2023-02-02T12:53:10.221Z,18.00
2023-02-02T12:55:40.021Z,17.00
2023-02-02T12:58:12.537Z,18.60
2023-02-02T13:00:45.274Z,17.90
2023-02-02T13:03:23.836Z,18.60
2023-02-02T13:05:55.287Z,19.60
2023-02-02T13:08:25.905Z,18.50
2023-02-02T13:10:53.541Z,17.40
2023-02-02T13:13:24.670Z,17.80
2023-02-02T13:15:57.179Z,17.00
2023-02-02T13:18:25.445Z,17.40
2023-02-02T13:20:55.801Z,17.90
2023-02-02T13:23:22.566Z,18.70
2023-02-02T13:25:50.570Z,17.90
2023-02-02T13:28:28.182Z,16.80
2023-02-02T13:30:55.940Z,16.80
2023-02-02T13:33:28.187Z,18.10
2023-02-02T13:35:55.513Z,18.50
2023-02-02T13:38:26.085Z,18.00
2023-02-02T13:40:54.334Z,18.10
2023-02-02T13:43:30.165Z,17.30
2023-02-02T13:46:15.526Z,17.60
2023-02-02T13:48:47.733Z,17.30
2023-02-02T13:51:20.555Z,17.20
2023-02-02T13:53:53.028Z,17.30
2023-02-02T13:56:38.578Z,16.60
2023-02-02T13:59:11.499Z,17.20
2023-02-02T14:01:40.521Z,17.20
2023-02-02T14:04:17.031Z,16.30
2023-02-02T14:06:56.249Z,16.70
2023-02-02T14:09:24.523Z,16.90
2023-02-02T14:12:01.812Z,16.00
2023-02-02T14:14:38.944Z,15.80
2023-02-02T14:17:06.463Z,15.20
2023-02-02T14:19:33.190Z,15.10
2023-02-02T14:22:00.444Z,14.20
2023-02-02T14:24:27.390Z,14.10
2023-02-02T14:26:54.872Z,14.10
2023-02-02T14:29:34.987Z,14.20
2023-02-02T14:32:01.695Z,14.30
2023-02-02T14:34:31.349Z,14.20
2023-02-02T14:36:59.828Z,14.70
2023-02-02T14:39:26.665Z,14.00
2023-02-02T14:42:27.254Z,14.00
2023-02-02T14:45:20.022Z,13.60
2023-02-02T14:47:55.760Z,13.70
2023-02-02T14:50:23.941Z,13.80
2023-02-02T14:52:57.669Z,13.40
2023-02-02T14:55:24.604Z,13.20
2023-02-02T14:57:55.670Z,13.30
2023-02-02T15:00:26.632Z,12.80
2023-02-02T15:02:53.860Z,12.80
2023-02-02T15:05:29.596Z,12.50
2023-02-02T15:08:15.974Z,12.30
2023-02-02T15:10:54.923Z,12.00
2023-02-02T15:13:22.029Z,11.80
2023-02-02T15:15:49.039Z,11.80
2023-02-02T15:18:17.065Z,11.90
2023-02-02T15:20:45.536Z,11.90
2023-02-02T15:23:39.076Z,11.80
2023-02-02T15:26:26.119Z,11.70
2023-02-02T15:28:52.791Z,11.30
2023-02-02T15:31:25.559Z,11.30
2023-02-02T15:33:53.125Z,11.30
2023-02-02T15:36:24.860Z,11.40
2023-02-02T15:38:52.810Z,11.30
2023-02-02T15:41:32.634Z,11.20
2023-02-02T15:43:59.942Z,11.10
2023-02-02T15:46:27.805Z,11.10
2023-02-02T15:49:31.431Z,11.20
2023-02-02T15:52:00.688Z,11.00
2023-02-02T15:54:31.654Z,10.90
2023-02-02T15:57:01.894Z,10.90
2023-02-02T15:59:29.436Z,10.70
2023-02-02T16:02:11.519Z,10.60
2023-02-02T16:04:45.655Z,10.60
2023-02-02T16:07:23.312Z,10.60
2023-02-02T16:09:49.999Z,10.50
2023-02-02T16:12:18.865Z,10.40
2023-02-02T16:14:46.286Z,10.40
2023-02-02T16:17:13.810Z,10.10
2023-02-02T16:19:41.903Z,10.10
2023-02-02T16:22:10.797Z,10.20
2023-02-02T16:24:39.302Z,10.10
2023-02-02T16:27:06.808Z,10.10
2023-02-02T16:29:34.107Z,10.10
2023-02-02T16:32:00.892Z,10.10
2023-02-02T16:34:45.375Z,10.00
2023-02-02T16:37:14.125Z,9.90
2023-02-02T16:39:40.988Z,10.00
2023-02-02T16:42:31.733Z,10.10
2023-02-02T16:45:00.452Z,10.10
2023-02-02T16:47:27.136Z,10.10
2023-02-02T16:49:54.215Z,9.90
2023-02-02T16:52:21.597Z,9.80
2023-02-02T16:54:54.981Z,9.80
2023-02-02T16:57:23.077Z,9.90
2023-02-02T16:59:50.947Z,9.70
2023-02-02T17:02:30.649Z,9.90
2023-02-02T17:05:07.783Z,9.90
2023-02-02T17:07:34.841Z,9.80
2023-02-02T17:10:16.982Z,9.80
2023-02-02T17:12:44.406Z,9.80
2023-02-02T17:15:17.293Z,9.90
2023-02-02T17:17:44.335Z,9.90
2023-02-02T17:20:11.243Z,9.60
2023-02-02T17:22:38.750Z,9.60
2023-02-02T17:25:05.693Z,9.60
2023-02-02T17:27:34.123Z,9.60
2023-02-02T17:30:01.209Z,9.50
2023-02-02T17:32:27.953Z,9.30
2023-02-02T17:34:54.731Z,9.40
2023-02-02T17:37:21.523Z,9.30
2023-02-02T17:39:50.412Z,9.30
2023-02-02T17:42:22.467Z,9.10
2023-02-02T17:44:49.165Z,9.20
2023-02-02T17:47:15.851Z,9.10
2023-02-02T17:49:42.586Z,9.20
2023-02-02T17:52:09.719Z,9.00
2023-02-02T17:54:36.403Z,8.90
2023-02-02T17:57:03.160Z,8.90
2023-02-02T17:59:29.907Z,8.70
2023-02-02T18:01:57.191Z,8.70
2023-02-02T18:04:24.944Z,8.80
2023-02-02T18:06:51.700Z,8.60
2023-02-02T18:09:18.399Z,8.70
2023-02-02T18:11:49.862Z,8.70
2023-02-02T18:14:16.656Z,8.60
2023-02-02T18:16:43.363Z,8.70
2023-02-02T18:19:10.383Z,8.60
2023-02-02T18:21:37.552Z,8.60
2023-02-02T18:24:04.425Z,8.60
2023-02-02T18:26:32.635Z,8.70
2023-02-02T18:28:59.529Z,8.60
2023-02-02T18:31:27.085Z,8.60
2023-02-02T18:33:54.486Z,8.40
2023-02-02T18:36:21.385Z,8.50
2023-02-02T18:38:48.489Z,8.50
2023-02-02T18:41:15.610Z,8.50
2023-02-02T18:43:42.317Z,8.50
2023-02-02T18:46:10.464Z,8.50
2023-02-02T18:48:37.175Z,8.50
2023-02-02T18:51:04.754Z,8.50
2023-02-02T18:53:31.641Z,8.40
2023-02-02T18:55:58.413Z,8.40
2023-02-02T18:58:27.540Z,8.30
2023-02-02T19:00:54.207Z,8.40
2023-02-02T19:03:20.948Z,8.50
2023-02-02T19:06:06.035Z,8.50
2023-02-02T19:08:33.944Z,8.50
2023-02-02T19:11:06.200Z,8.50
2023-02-02T19:13:32.936Z,8.50
2023-02-02T19:16:00.875Z,8.60
2023-02-02T19:18:31.138Z,8.60
2023-02-02T19:20:57.836Z,8.60
2023-02-02T19:23:28.969Z,8.50
2023-02-02T19:25:55.779Z,8.60
2023-02-02T19:28:26.752Z,8.40
2023-02-02T19:30:54.017Z,8.50
2023-02-02T19:33:20.793Z,8.60
2023-02-02T19:35:49.301Z,8.40
2023-02-02T19:38:17.013Z,8.40
2023-02-02T19:40:43.805Z,8.40
2023-02-02T19:43:10.763Z,8.50
2023-02-02T19:45:39.697Z,8.50
2023-02-02T19:48:29.735Z,8.50
2023-02-02T19:50:56.493Z,8.50
2023-02-02T19:53:43.443Z,8.40
2023-02-02T19:56:26.794Z,8.40
2023-02-02T19:58:53.474Z,8.30
2023-02-02T20:01:20.591Z,7.70
2023-02-02T20:03:47.347Z,8.00
2023-02-02T20:06:19.805Z,8.00
2023-02-02T20:08:46.462Z,7.90
2023-02-02T20:11:32.241Z,7.90
2023-02-02T20:13:59.722Z,7.80
2023-02-02T20:16:28.219Z,7.90
2023-02-02T20:18:55.580Z,7.70
2023-02-02T20:21:36.631Z,7.60
2023-02-02T20:24:03.433Z,7.70
2023-02-02T20:26:33.535Z,7.80
2023-02-02T20:29:01.115Z,7.70
2023-02-02T20:31:29.789Z,7.70
2023-02-02T20:33:57.636Z,7.80
2023-02-02T20:36:40.257Z,7.70
2023-02-02T20:39:12.543Z,7.40
2023-02-02T20:41:39.222Z,7.50
2023-02-02T20:44:05.882Z,7.20
2023-02-02T20:46:32.606Z,7.40
2023-02-02T20:48:59.332Z,7.30
2023-02-02T20:51:26.070Z,7.30
2023-02-02T20:53:55.583Z,7.20
2023-02-02T20:56:22.886Z,7.40
2023-02-02T20:58:49.889Z,7.20
2023-02-02T21:01:16.996Z,7.30
2023-02-02T21:03:46.177Z,7.00
2023-02-02T21:06:15.713Z,6.50
2023-02-02T21:08:43.794Z,6.80
2023-02-02T21:11:10.508Z,6.60
2023-02-02T21:13:37.335Z,6.70
2023-02-02T21:16:04.298Z,6.70
2023-02-02T21:18:30.975Z,7.00
2023-02-02T21:20:57.682Z,7.10
2023-02-02T21:23:24.436Z,7.20
2023-02-02T21:25:51.177Z,7.10
2023-02-02T21:28:17.909Z,7.20
2023-02-02T21:30:44.791Z,7.20
2023-02-02T21:33:11.595Z,7.30
2023-02-02T21:35:38.255Z,7.30
2023-02-02T21:38:07.248Z,7.50
2023-02-02T21:40:34.737Z,7.30
2023-02-02T21:43:01.631Z,7.00
2023-02-02T21:45:32.340Z,7.00
2023-02-02T21:47:59.409Z,7.10
2023-02-02T21:50:30.013Z,7.20
2023-02-02T21:53:16.955Z,7.10
2023-02-02T21:55:44.362Z,7.10
2023-02-02T21:58:31.324Z,6.90
2023-02-02T22:01:18.332Z,6.90
2023-02-02T22:03:46.849Z,6.40
2023-02-02T22:06:16.432Z,6.60
2023-02-02T22:08:43.195Z,6.40
2023-02-02T22:11:31.499Z,6.60
2023-02-02T22:14:02.607Z,6.70
2023-02-02T22:16:41.252Z,6.70
2023-02-02T22:19:26.739Z,6.20
2023-02-02T22:21:55.897Z,6.20
2023-02-02T22:24:22.614Z,5.70
2023-02-02T22:26:49.412Z,5.40
2023-02-02T22:29:16.901Z,5.30
2023-02-02T22:31:43.785Z,5.30
2023-02-02T22:34:10.530Z,5.10
2023-02-02T22:36:37.221Z,5.30
2023-02-02T22:39:03.933Z,5.20
2023-02-02T22:41:30.677Z,5.30
2023-02-02T22:43:57.435Z,5.30
2023-02-02T22:46:24.151Z,5.40
2023-02-02T22:48:50.959Z,5.30
2023-02-02T22:51:17.683Z,5.40
2023-02-02T22:53:44.342Z,5.40
2023-02-02T22:56:11.043Z,5.30
2023-02-02T22:58:37.753Z,5.20
2023-02-02T23:01:05.094Z,5.30
2023-02-02T23:03:31.932Z,5.20
2023-02-02T23:05:58.638Z,5.30
2023-02-02T23:08:25.460Z,5.30
2023-02-02T23:10:52.158Z,5.10
2023-02-02T23:13:20.218Z,5.20
2023-02-02T23:15:46.909Z,5.10
2023-02-02T23:18:13.655Z,5.30
2023-02-02T23:20:40.372Z,5.30
2023-02-02T23:23:07.113Z,5.30
2023-02-02T23:25:33.838Z,5.30
2023-02-02T23:28:00.604Z,5.30
2023-02-02T23:30:27.650Z,5.20
2023-02-02T23:32:54.533Z,5.20
2023-02-02T23:35:21.266Z,5.40
2023-02-02T23:37:48.071Z,5.50
2023-02-02T23:40:14.769Z,5.50
2023-02-02T23:42:41.509Z,5.60
2023-02-02T23:45:08.472Z,5.60
2023-02-02T23:47:35.249Z,5.70
2023-02-02T23:50:02.482Z,5.70
2023-02-02T23:52:29.149Z,5.80
2023-02-02T23:54:55.823Z,5.80
2023-02-02T23:57:22.515Z,5.90
2023-02-02T23:59:49.270Z,5.90
